createdAt,value
2023-03-17T00:02:30.338Z,74.72
2023-03-17T00:04:58.344Z,74.37
2023-03-17T00:07:25.407Z,74.19
2023-03-17T00:09:52.843Z,74.61
2023-03-17T00:12:20.133Z,74.25
2023-03-17T00:14:50.980Z,74.64
2023-03-17T00:17:18.721Z,74.18
2023-03-17T00:19:49.693Z,73.87
2023-03-17T00:22:23.007Z,73.80
2023-03-17T00:24:52.434Z,74.20
2023-03-17T00:27:20.716Z,73.79
2023-03-17T00:29:50.208Z,74.15
2023-03-17T00:32:20.332Z,74.26
2023-03-17T00:34:47.855Z,73.86
2023-03-17T00:37:15.144Z,74.05
2023-03-17T00:39:43.115Z,74.17
2023-03-17T00:42:11.171Z,73.60
2023-03-17T00:44:38.530Z,73.80
2023-03-17T00:47:07.562Z,73.83
2023-03-17T00:49:35.481Z,74.00
2023-03-17T00:52:02.429Z,74.02
2023-03-17T00:54:30.116Z,74.00
2023-03-17T00:56:57.735Z,73.96
2023-03-17T00:59:31.042Z,74.37
2023-03-17T01:01:58.377Z,74.38
2023-03-17T01:04:26.015Z,74.72
2023-03-17T01:06:54.610Z,74.54
2023-03-17T01:09:26.867Z,74.40
2023-03-17T01:11:55.848Z,74.73
2023-03-17T01:14:24.924Z,74.50
2023-03-17T01:16:55.495Z,74.76
2023-03-17T01:19:23.155Z,74.85
2023-03-17T01:21:50.341Z,74.43
2023-03-17T01:24:19.260Z,74.77
2023-03-17T01:26:46.256Z,74.76
2023-03-17T01:29:14.388Z,74.87
2023-03-17T01:31:41.498Z,75.03
2023-03-17T01:34:08.994Z,74.97
2023-03-17T01:36:35.974Z,75.22
2023-03-17T01:39:05.406Z,75.07
2023-03-17T01:41:37.681Z,75.10
2023-03-17T01:44:05.227Z,75.20
2023-03-17T01:46:34.412Z,74.91
2023-03-17T01:49:26.001Z,74.95
2023-03-17T01:52:10.500Z,74.90
2023-03-17T01:54:40.890Z,74.69
2023-03-17T01:57:19.640Z,74.93
2023-03-17T01:59:51.621Z,74.65
2023-03-17T02:02:32.888Z,74.90
2023-03-17T02:05:00.707Z,74.91
2023-03-17T02:07:28.390Z,74.79
2023-03-17T02:09:57.270Z,75.07
2023-03-17T02:12:25.692Z,74.98
2023-03-17T02:14:52.984Z,74.51
2023-03-17T02:17:24.877Z,74.86
2023-03-17T02:19:52.601Z,74.78
2023-03-17T02:22:20.395Z,74.81
2023-03-17T02:24:55.887Z,74.99
2023-03-17T02:27:33.562Z,74.79
2023-03-17T02:30:01.488Z,74.74
2023-03-17T02:32:28.575Z,74.67
2023-03-17T02:34:57.378Z,74.96
2023-03-17T02:37:24.381Z,74.71
2023-03-17T02:39:53.969Z,74.30
2023-03-17T02:42:21.089Z,74.66
2023-03-17T02:44:48.651Z,74.07
2023-03-17T02:47:15.786Z,74.19
2023-03-17T02:49:44.215Z,74.13
2023-03-17T02:52:12.196Z,74.09
2023-03-17T02:54:39.722Z,74.44
2023-03-17T02:57:08.690Z,74.25
2023-03-17T02:59:36.448Z,74.36
2023-03-17T03:02:03.654Z,74.17
2023-03-17T03:04:31.025Z,74.37
2023-03-17T03:06:58.062Z,74.06
2023-03-17T03:09:27.436Z,73.94
2023-03-17T03:11:54.463Z,73.34
2023-03-17T03:14:23.765Z,73.47
2023-03-17T03:16:51.202Z,73.34
2023-03-17T03:19:18.639Z,73.50
2023-03-17T03:21:46.320Z,73.20
2023-03-17T03:24:13.885Z,72.96
2023-03-17T03:26:41.622Z,72.92
2023-03-17T03:29:09.150Z,73.22
2023-03-17T03:31:36.251Z,72.78
2023-03-17T03:34:04.213Z,72.77
2023-03-17T03:36:31.402Z,72.89
2023-03-17T03:39:00.099Z,72.65
2023-03-17T03:41:27.550Z,72.33
2023-03-17T03:43:57.026Z,72.95
2023-03-17T03:46:24.130Z,72.49
2023-03-17T03:48:51.498Z,72.47
2023-03-17T03:51:18.656Z,72.43
2023-03-17T03:53:47.176Z,72.18
2023-03-17T03:56:17.461Z,72.06
2023-03-17T03:58:44.915Z,72.28
2023-03-17T04:01:12.524Z,72.03
2023-03-17T04:03:40.037Z,72.00
2023-03-17T04:06:07.317Z,71.71
2023-03-17T04:08:35.102Z,71.58
2023-03-17T04:11:02.113Z,71.25
2023-03-17T04:13:29.442Z,71.28
2023-03-17T04:15:56.638Z,70.82
2023-03-17T04:18:24.018Z,71.06
2023-03-17T04:20:51.054Z,70.78
2023-03-17T04:23:19.263Z,70.99
2023-03-17T04:25:47.230Z,70.60
2023-03-17T04:28:15.416Z,70.85
2023-03-17T04:30:42.462Z,70.13
2023-03-17T04:33:10.999Z,70.46
2023-03-17T04:35:38.186Z,70.26
2023-03-17T04:38:07.075Z,70.00
2023-03-17T04:40:34.165Z,69.75
2023-03-17T04:43:03.486Z,70.16
2023-03-17T04:45:30.642Z,69.86
2023-03-17T04:47:58.078Z,70.09
2023-03-17T04:50:25.314Z,70.54
2023-03-17T04:52:52.598Z,69.74
2023-03-17T04:55:21.973Z,69.99
2023-03-17T04:57:49.815Z,69.83
2023-03-17T05:00:18.220Z,69.66
2023-03-17T05:02:46.417Z,69.31
2023-03-17T05:05:13.794Z,69.45
2023-03-17T05:07:41.994Z,69.26
2023-03-17T05:10:10.120Z,69.31
2023-03-17T05:12:37.791Z,68.87
2023-03-17T05:15:05.831Z,69.02
2023-03-17T05:17:35.802Z,68.91
2023-03-17T05:20:02.977Z,68.76
2023-03-17T05:22:30.734Z,68.66
2023-03-17T05:24:57.886Z,68.51
2023-03-17T05:27:30.545Z,68.59
2023-03-17T05:29:57.843Z,68.29
2023-03-17T05:32:25.887Z,68.27
2023-03-17T05:34:53.846Z,68.43
2023-03-17T05:37:23.848Z,68.01
2023-03-17T05:39:51.110Z,68.16
2023-03-17T05:42:18.780Z,67.89
2023-03-17T05:44:47.838Z,67.95
2023-03-17T05:47:19.229Z,68.25
2023-03-17T05:49:46.974Z,67.95
2023-03-17T05:52:14.509Z,68.06
2023-03-17T05:54:41.546Z,67.53
2023-03-17T05:57:08.932Z,67.86
2023-03-17T05:59:36.305Z,67.35
2023-03-17T06:02:04.298Z,67.80
2023-03-17T06:04:31.397Z,67.10
2023-03-17T06:06:58.858Z,66.67
2023-03-17T06:09:26.119Z,67.52
2023-03-17T06:11:53.750Z,67.95
2023-03-17T06:14:21.243Z,67.67
2023-03-17T06:16:55.977Z,67.20
2023-03-17T06:19:24.710Z,67.66
2023-03-17T06:21:52.628Z,67.61
2023-03-17T06:24:21.725Z,67.64
2023-03-17T06:26:49.204Z,67.22
2023-03-17T06:29:16.322Z,67.60
2023-03-17T06:31:50.468Z,67.32
2023-03-17T06:34:18.824Z,67.27
2023-03-17T06:36:46.425Z,67.37
2023-03-17T06:41:56.904Z,66.74
2023-03-17T06:44:25.849Z,67.07
2023-03-17T06:46:53.439Z,65.95
2023-03-17T06:49:20.749Z,65.88
2023-03-17T06:51:48.206Z,65.41
2023-03-17T06:54:15.375Z,64.56
2023-03-17T06:56:42.988Z,64.45
2023-03-17T06:59:10.569Z,64.89
2023-03-17T07:01:39.445Z,64.06
2023-03-17T07:04:09.794Z,63.60
2023-03-17T07:06:46.369Z,63.06
2023-03-17T07:09:15.687Z,63.05
2023-03-17T07:12:18.792Z,62.30
2023-03-17T07:14:48.257Z,61.12
2023-03-17T07:17:15.884Z,61.18
2023-03-17T07:19:43.793Z,61.82
2023-03-17T07:22:14.158Z,61.61
2023-03-17T07:24:47.080Z,61.36
2023-03-17T07:27:14.863Z,61.17
2023-03-17T07:29:42.167Z,60.92
2023-03-17T07:32:10.453Z,60.63
2023-03-17T07:34:37.913Z,60.44
2023-03-17T07:37:07.103Z,60.13
2023-03-17T07:39:34.471Z,59.45
2023-03-17T07:42:02.109Z,60.07
2023-03-17T07:44:31.365Z,60.56
2023-03-17T07:46:58.829Z,60.88
2023-03-17T07:49:40.375Z,60.28
2023-03-17T07:52:10.233Z,60.00
2023-03-17T07:54:37.838Z,59.64
2023-03-17T07:57:06.508Z,59.81
2023-03-17T07:59:33.911Z,59.55
2023-03-17T08:02:02.033Z,59.18
2023-03-17T08:04:29.387Z,59.07
2023-03-17T08:06:57.843Z,59.44
2023-03-17T08:09:34.581Z,59.50
2023-03-17T08:12:02.213Z,59.01
2023-03-17T08:14:30.296Z,58.25
2023-03-17T08:16:57.759Z,57.98
2023-03-17T08:19:24.813Z,58.22
2023-03-17T08:21:53.265Z,58.12
2023-03-17T08:24:20.900Z,57.43
2023-03-17T08:26:49.511Z,58.03
2023-03-17T08:29:21.299Z,58.28
2023-03-17T08:31:49.886Z,57.66
2023-03-17T08:34:17.770Z,57.20
2023-03-17T08:36:46.858Z,57.14
2023-03-17T08:39:17.374Z,54.03
2023-03-17T08:41:44.973Z,51.75
2023-03-17T08:44:13.105Z,46.48
2023-03-17T08:46:40.950Z,44.06
2023-03-17T08:49:08.310Z,44.06
2023-03-17T08:51:38.025Z,44.43
2023-03-17T08:54:06.972Z,43.63
2023-03-17T08:56:37.696Z,42.58
2023-03-17T08:59:07.240Z,39.47
2023-03-17T09:01:35.273Z,39.54
2023-03-17T09:04:02.974Z,38.98
2023-03-17T09:06:32.384Z,38.24
2023-03-17T09:09:00.444Z,38.98
2023-03-17T09:11:30.054Z,37.60
2023-03-17T09:13:58.136Z,38.20
2023-03-17T09:16:25.972Z,39.32
2023-03-17T09:18:53.611Z,38.98
2023-03-17T09:21:21.599Z,34.50
2023-03-17T09:23:50.179Z,36.39
2023-03-17T09:26:17.871Z,35.94
2023-03-17T09:28:46.834Z,32.96
2023-03-17T09:31:14.380Z,34.87
2023-03-17T09:33:42.226Z,36.70
2023-03-17T09:36:17.419Z,37.18
2023-03-17T09:39:00.476Z,35.85
2023-03-17T09:41:52.122Z,33.72
2023-03-17T09:44:43.814Z,33.72
2023-03-17T09:47:37.524Z,33.22
2023-03-17T09:50:10.797Z,34.09
2023-03-17T09:52:38.621Z,31.93
2023-03-17T09:55:18.745Z,31.39
2023-03-17T09:57:46.517Z,31.48
2023-03-17T10:00:19.137Z,33.66
2023-03-17T10:02:53.130Z,35.46
2023-03-17T10:05:30.291Z,35.26
2023-03-17T10:08:29.375Z,33.82
2023-03-17T10:11:10.974Z,33.32
2023-03-17T10:13:55.189Z,33.42
2023-03-17T10:16:32.889Z,34.89
2023-03-17T10:19:27.277Z,31.78
2023-03-17T10:22:03.259Z,30.16
2023-03-17T10:24:34.048Z,29.24
2023-03-17T10:27:06.508Z,29.16
2023-03-17T10:29:34.167Z,28.49
2023-03-17T10:32:01.242Z,29.01
2023-03-17T10:34:37.724Z,30.29
2023-03-17T10:37:13.529Z,30.56
2023-03-17T10:39:53.542Z,31.41
2023-03-17T10:42:35.758Z,30.50
2023-03-17T10:45:26.121Z,31.63
2023-03-17T10:47:56.606Z,33.64
2023-03-17T10:50:48.648Z,36.65
2023-03-17T10:53:28.132Z,35.61
2023-03-17T10:56:07.142Z,34.93
2023-03-17T10:58:49.772Z,34.55
2023-03-17T11:01:29.373Z,32.80
2023-03-17T11:03:57.709Z,33.23
2023-03-17T11:06:37.593Z,32.19
2023-03-17T11:09:18.575Z,32.12
2023-03-17T11:11:48.355Z,33.63
2023-03-17T11:14:21.188Z,34.47
2023-03-17T11:16:53.276Z,31.29
2023-03-17T11:19:27.802Z,30.71
2023-03-17T11:22:16.131Z,31.61
2023-03-17T11:24:55.542Z,32.51
2023-03-17T11:27:31.635Z,34.63
2023-03-17T11:30:30.591Z,34.25
2023-03-17T11:33:01.147Z,30.77
2023-03-17T11:35:44.227Z,28.91
2023-03-17T11:38:31.056Z,29.36
2023-03-17T11:41:28.443Z,32.05
2023-03-17T11:44:21.673Z,33.13
2023-03-17T11:47:04.994Z,32.36
2023-03-17T11:49:45.758Z,33.77
2023-03-17T11:52:32.747Z,35.08
2023-03-17T11:55:20.084Z,35.82
2023-03-17T11:57:51.898Z,35.91
2023-03-17T12:00:34.738Z,35.26
2023-03-17T12:03:17.846Z,33.87
2023-03-17T12:05:51.649Z,35.16
2023-03-17T12:08:49.984Z,35.58
2023-03-17T12:11:24.176Z,35.46
2023-03-17T12:14:01.402Z,33.22
2023-03-17T12:16:49.556Z,33.76
2023-03-17T12:19:28.428Z,34.28
2023-03-17T12:22:32.932Z,31.72
2023-03-17T12:25:18.210Z,30.66
2023-03-17T12:28:00.337Z,33.02
2023-03-17T12:30:45.770Z,30.33
2023-03-17T12:33:34.531Z,28.79
2023-03-17T12:36:04.317Z,29.05
2023-03-17T12:38:38.556Z,28.99
2023-03-17T12:41:20.978Z,28.80
2023-03-17T12:44:13.011Z,28.01
2023-03-17T12:46:42.955Z,29.44
2023-03-17T12:49:28.116Z,31.33
2023-03-17T12:52:18.197Z,33.73
2023-03-17T12:54:52.384Z,35.77
2023-03-17T12:57:22.912Z,35.66
2023-03-17T13:00:15.562Z,35.75
2023-03-17T13:02:49.694Z,34.96
2023-03-17T13:05:28.560Z,36.71
2023-03-17T13:07:59.670Z,37.05
2023-03-17T13:10:48.212Z,35.87
2023-03-17T13:14:01.261Z,36.30
2023-03-17T13:16:34.396Z,33.63
2023-03-17T13:19:33.030Z,33.66
2023-03-17T13:22:00.759Z,34.49
2023-03-17T13:24:51.213Z,35.17
2023-03-17T13:27:24.372Z,34.87
2023-03-17T13:29:51.518Z,35.78
2023-03-17T13:32:26.587Z,36.15
2023-03-17T13:35:15.976Z,36.68
2023-03-17T13:38:07.161Z,37.94
2023-03-17T13:40:52.990Z,37.43
2023-03-17T13:47:23.463Z,38.40
2023-03-17T13:49:55.586Z,39.03
2023-03-17T13:52:28.115Z,38.62
2023-03-17T13:55:03.318Z,38.71
2023-03-17T13:57:39.329Z,37.50
2023-03-17T14:00:28.158Z,37.48
2023-03-17T14:03:07.143Z,37.50
2023-03-17T14:05:38.271Z,38.19
2023-03-17T14:08:22.850Z,38.16
2023-03-17T14:10:57.012Z,38.92
2023-03-17T14:13:44.828Z,39.33
2023-03-17T14:16:26.696Z,39.79
2023-03-17T14:19:27.208Z,39.80
2023-03-17T14:22:01.795Z,40.09
2023-03-17T14:24:31.847Z,39.59
2023-03-17T14:27:07.333Z,38.65
2023-03-17T14:29:35.246Z,38.46
2023-03-17T14:32:12.121Z,38.11
2023-03-17T14:34:43.902Z,38.53
2023-03-17T14:37:15.103Z,39.17
2023-03-17T14:39:52.488Z,39.39
2023-03-17T14:42:26.799Z,39.92
2023-03-17T14:45:08.840Z,39.62
2023-03-17T14:47:56.303Z,39.43
2023-03-17T14:50:30.251Z,39.21
2023-03-17T14:53:01.544Z,39.58
2023-03-17T14:55:43.442Z,39.36
2023-03-17T14:58:24.808Z,39.10
2023-03-17T15:01:08.093Z,39.55
2023-03-17T15:03:40.008Z,39.01
2023-03-17T15:06:26.150Z,38.86
2023-03-17T15:08:54.690Z,38.96
2023-03-17T15:11:41.833Z,39.32
2023-03-17T15:14:38.928Z,39.29
2023-03-17T15:17:17.241Z,38.93
2023-03-17T15:19:50.760Z,38.89
2023-03-17T15:22:22.913Z,39.26
2023-03-17T15:25:22.580Z,39.85
2023-03-17T15:27:51.584Z,39.53
2023-03-17T15:30:19.430Z,39.78
2023-03-17T15:32:53.063Z,39.82
2023-03-17T15:35:21.473Z,40.34
2023-03-17T15:37:48.833Z,40.18
2023-03-17T15:43:07.375Z,40.67
2023-03-17T15:45:47.560Z,40.32
2023-03-17T15:48:26.525Z,40.65
2023-03-17T15:50:56.985Z,40.87
2023-03-17T15:53:39.733Z,41.40
2023-03-17T15:56:14.432Z,41.53
2023-03-17T15:58:41.595Z,41.85
2023-03-17T16:01:11.839Z,42.03
2023-03-17T16:03:45.735Z,42.24
2023-03-17T16:06:20.893Z,42.63
2023-03-17T16:08:49.947Z,41.87
2023-03-17T16:11:29.252Z,41.74
2023-03-17T16:14:03.560Z,42.06
2023-03-17T16:16:39.859Z,42.35
2023-03-17T16:19:15.121Z,42.32
2023-03-17T16:21:42.751Z,42.62
2023-03-17T16:24:31.832Z,42.48
2023-03-17T16:26:59.637Z,43.04
2023-03-17T16:29:26.725Z,42.83
2023-03-17T16:31:54.137Z,42.79
2023-03-17T16:34:23.395Z,43.07
2023-03-17T16:36:54.415Z,43.47
2023-03-17T16:39:23.540Z,43.57
2023-03-17T16:42:04.942Z,44.54
2023-03-17T16:47:26.794Z,45.92
2023-03-17T16:49:53.775Z,46.28
2023-03-17T16:52:21.110Z,46.62
2023-03-17T16:54:48.557Z,47.29
2023-03-17T16:57:16.334Z,47.29
2023-03-17T16:59:43.419Z,47.14
2023-03-17T17:02:16.399Z,47.38
2023-03-17T17:04:44.013Z,47.80
2023-03-17T17:07:11.681Z,48.12
2023-03-17T17:09:39.136Z,48.09
2023-03-17T17:12:07.181Z,48.59
2023-03-17T17:14:34.380Z,48.46
2023-03-17T17:17:14.853Z,48.52
2023-03-17T17:19:44.844Z,48.78
2023-03-17T17:22:14.745Z,49.30
2023-03-17T17:24:41.771Z,49.21
2023-03-17T17:27:09.149Z,49.54
2023-03-17T17:32:22.153Z,50.17
2023-03-17T17:34:49.662Z,50.12
2023-03-17T17:37:17.341Z,50.27
2023-03-17T17:39:45.013Z,50.87
2023-03-17T17:42:16.319Z,50.60
2023-03-17T17:44:43.647Z,50.83
2023-03-17T17:47:14.095Z,50.71
2023-03-17T17:49:41.820Z,50.73
2023-03-17T17:52:10.680Z,51.15
2023-03-17T17:54:39.121Z,51.28
2023-03-17T17:57:07.185Z,51.36
2023-03-17T17:59:34.591Z,51.43
2023-03-17T18:02:03.478Z,51.76
2023-03-17T18:04:30.923Z,51.97
2023-03-17T18:09:44.169Z,53.08
2023-03-17T18:12:12.944Z,53.22
2023-03-17T18:14:39.940Z,53.46
2023-03-17T18:17:09.463Z,53.81
2023-03-17T18:19:37.602Z,54.79
2023-03-17T18:22:05.186Z,55.54
2023-03-17T18:24:32.300Z,55.83
2023-03-17T18:27:00.760Z,56.15
2023-03-17T18:29:27.917Z,56.59
2023-03-17T18:31:55.762Z,57.04
2023-03-17T18:34:44.364Z,57.55
2023-03-17T18:37:15.441Z,57.94
2023-03-17T18:39:43.498Z,58.29
2023-03-17T18:42:14.463Z,58.66
2023-03-17T18:44:41.598Z,58.70
2023-03-17T18:47:10.899Z,59.17
2023-03-17T18:49:38.444Z,59.39
2023-03-17T18:52:05.765Z,59.45
2023-03-17T18:54:33.266Z,59.52
2023-03-17T18:57:02.008Z,59.63
2023-03-17T18:59:29.022Z,59.75
2023-03-17T19:01:57.356Z,60.18
2023-03-17T19:04:24.460Z,59.80
2023-03-17T19:06:52.348Z,59.66
2023-03-17T19:09:19.677Z,59.24
2023-03-17T19:11:47.178Z,59.33
2023-03-17T19:14:14.409Z,59.31
2023-03-17T19:16:41.888Z,59.41
2023-03-17T19:19:09.176Z,59.31
2023-03-17T19:21:36.633Z,59.03
2023-03-17T19:24:05.035Z,59.25
2023-03-17T19:26:33.819Z,59.19
2023-03-17T19:29:01.607Z,59.60
2023-03-17T19:31:29.133Z,59.53
2023-03-17T19:33:56.700Z,59.66
2023-03-17T19:36:24.257Z,59.81
2023-03-17T19:38:51.344Z,60.02
2023-03-17T19:41:19.109Z,60.18
2023-03-17T19:43:46.331Z,60.25
2023-03-17T19:46:13.921Z,60.92
2023-03-17T19:48:42.059Z,60.79
2023-03-17T19:51:09.980Z,60.67
2023-03-17T19:53:37.632Z,60.89
2023-03-17T19:56:05.266Z,61.06
2023-03-17T19:58:32.746Z,61.06
2023-03-17T20:01:00.568Z,60.90
2023-03-17T20:03:28.561Z,61.13
2023-03-17T20:08:37.906Z,61.15
2023-03-17T20:11:06.378Z,61.08
2023-03-17T20:13:35.078Z,61.45
2023-03-17T20:16:03.784Z,61.24
2023-03-17T20:18:31.515Z,61.18
2023-03-17T20:21:07.534Z,61.71
2023-03-17T20:23:36.865Z,61.61
2023-03-17T20:26:05.173Z,61.91
2023-03-17T20:28:32.690Z,61.97
2023-03-17T20:31:03.106Z,62.05
2023-03-17T20:33:32.655Z,62.43
2023-03-17T20:36:03.305Z,62.31
2023-03-17T20:38:33.384Z,62.60
2023-03-17T20:41:14.202Z,62.51
2023-03-17T20:43:41.978Z,62.84
2023-03-17T20:46:15.727Z,63.12
2023-03-17T20:48:44.334Z,63.44
2023-03-17T20:51:16.497Z,63.62
2023-03-17T20:53:46.365Z,64.04
2023-03-17T20:56:16.511Z,64.54
2023-03-17T20:58:49.534Z,64.32
2023-03-17T21:01:21.538Z,64.67
2023-03-17T21:03:50.895Z,65.05
2023-03-17T21:06:18.739Z,65.12
2023-03-17T21:08:46.353Z,65.73
2023-03-17T21:11:17.789Z,66.02
2023-03-17T21:13:45.430Z,66.08
2023-03-17T21:16:25.867Z,66.11
2023-03-17T21:18:53.173Z,66.57
2023-03-17T21:21:21.851Z,66.68
2023-03-17T21:23:49.405Z,66.74
2023-03-17T21:26:17.880Z,66.98
2023-03-17T21:28:45.475Z,67.16
2023-03-17T21:31:14.002Z,67.36
2023-03-17T21:33:42.232Z,67.87
2023-03-17T21:36:09.893Z,67.79
2023-03-17T21:38:37.740Z,68.27
2023-03-17T21:41:34.026Z,68.77
2023-03-17T21:44:02.301Z,69.03
2023-03-17T21:46:31.767Z,69.78
2023-03-17T21:48:58.791Z,70.38
2023-03-17T21:51:27.948Z,70.55
2023-03-17T21:53:55.117Z,71.40
2023-03-17T21:56:22.442Z,71.40
2023-03-17T21:58:50.265Z,71.78
2023-03-17T22:01:20.545Z,72.31
2023-03-17T22:03:49.620Z,72.83
2023-03-17T22:06:17.737Z,72.71
2023-03-17T22:08:45.852Z,72.98
2023-03-17T22:11:18.866Z,73.22
2023-03-17T22:13:46.812Z,73.58
2023-03-17T22:16:15.719Z,73.59
2023-03-17T22:18:43.177Z,73.52
2023-03-17T22:21:11.028Z,73.99
2023-03-17T22:23:42.465Z,74.50
2023-03-17T22:26:15.517Z,74.76
2023-03-17T22:28:43.853Z,75.08
2023-03-17T22:31:17.597Z,75.42
2023-03-17T22:33:46.853Z,75.40
2023-03-17T22:36:14.607Z,75.29
2023-03-17T22:38:42.163Z,75.61
2023-03-17T22:41:13.510Z,76.24
2023-03-17T22:43:41.798Z,76.66
2023-03-17T22:46:11.310Z,77.58
2023-03-17T22:48:39.977Z,78.10
2023-03-17T22:51:15.857Z,79.09
2023-03-17T22:53:44.724Z,79.87
2023-03-17T22:56:13.168Z,80.89
2023-03-17T22:58:40.600Z,81.71
2023-03-17T23:01:10.293Z,82.84
2023-03-17T23:03:37.388Z,83.59
2023-03-17T23:06:06.185Z,84.35
2023-03-17T23:08:36.181Z,84.92
2023-03-17T23:11:07.978Z,85.01
2023-03-17T23:13:35.937Z,85.31
2023-03-17T23:16:04.885Z,85.62
2023-03-17T23:18:32.751Z,85.36
2023-03-17T23:21:01.670Z,85.73
2023-03-17T23:23:30.396Z,85.55
2023-03-17T23:25:58.268Z,85.69
2023-03-17T23:28:25.393Z,85.52
2023-03-17T23:30:53.422Z,85.61
2023-03-17T23:33:23.118Z,85.31
2023-03-17T23:35:52.984Z,85.11
2023-03-17T23:38:21.661Z,85.52
2023-03-17T23:40:50.247Z,85.11
2023-03-17T23:43:17.547Z,85.06
2023-03-17T23:45:45.588Z,85.50
2023-03-17T23:48:12.949Z,85.33
2023-03-17T23:50:41.394Z,85.27
2023-03-17T23:53:09.972Z,85.60
2023-03-17T23:55:38.748Z,85.94
2023-03-17T23:58:05.791Z,85.99
